createdAt,value
2023-04-18T00:01:02.999Z,97434.91
2023-04-18T00:03:29.942Z,97436.97
2023-04-18T00:05:58.020Z,97426.16
2023-04-18T00:08:24.604Z,97431.91
2023-04-18T00:10:51.088Z,97441.63
2023-04-18T00:13:18.596Z,97433.50
2023-04-18T00:15:46.317Z,97438.03
2023-04-18T00:18:15.892Z,97441.13
2023-04-18T00:20:42.504Z,97445.47
2023-04-18T00:23:09.353Z,97442.66
2023-04-18T00:25:36.338Z,97434.75
2023-04-18T00:28:02.824Z,97432.31
2023-04-18T00:30:29.365Z,97442.63
2023-04-18T00:32:56.164Z,97430.97
2023-04-18T00:35:24.991Z,97436.59
2023-04-18T00:37:51.897Z,97423.47
2023-04-18T00:40:18.445Z,97426.47
2023-04-18T00:42:44.909Z,97421.84
2023-04-18T00:45:13.819Z,97428.91
2023-04-18T00:47:40.450Z,97420.03
2023-04-18T00:50:07.941Z,97421.53
2023-04-18T00:52:35.850Z,97419.41
2023-04-18T00:55:06.633Z,97422.09
2023-04-18T00:57:33.456Z,97419.47
2023-04-18T01:00:00.972Z,97410.97
2023-04-18T01:02:32.027Z,97408.94
2023-04-18T01:04:58.664Z,97415.69
2023-04-18T01:07:26.489Z,97413.66
2023-04-18T01:09:56.638Z,97412.59
2023-04-18T01:12:23.131Z,97413.91
2023-04-18T01:14:49.610Z,97411.88
2023-04-18T01:17:16.302Z,97411.22
2023-04-18T01:19:44.444Z,97410.38
2023-04-18T01:22:13.288Z,97401.72
2023-04-18T01:24:40.981Z,97402.38
2023-04-18T01:27:11.256Z,97406.47
2023-04-18T01:29:39.002Z,97405.81
2023-04-18T01:32:06.012Z,97402.66
2023-04-18T01:34:32.448Z,97406.59
2023-04-18T01:36:59.297Z,97399.63
2023-04-18T01:39:25.792Z,97398.75
2023-04-18T01:41:52.310Z,97395.66
2023-04-18T01:44:18.804Z,97398.53
2023-04-18T01:46:46.042Z,97399.69
2023-04-18T01:49:12.784Z,97398.00
2023-04-18T01:51:39.481Z,97397.00
2023-04-18T01:54:06.148Z,97402.03
2023-04-18T01:56:32.682Z,97402.38
2023-04-18T01:59:00.778Z,97408.47
2023-04-18T02:01:27.922Z,97406.13
2023-04-18T02:03:54.582Z,97406.88
2023-04-18T02:06:21.225Z,97395.69
2023-04-18T02:08:47.856Z,97407.53
2023-04-18T02:11:14.349Z,97399.13
2023-04-18T02:13:41.212Z,97405.38
2023-04-18T02:16:12.060Z,97400.81
2023-04-18T02:18:40.099Z,97401.56
2023-04-18T02:21:07.160Z,97407.72
2023-04-18T02:23:33.690Z,97401.63
2023-04-18T02:26:00.213Z,97403.56
2023-04-18T02:28:26.674Z,97403.09
2023-04-18T02:30:54.161Z,97408.19
2023-04-18T02:33:20.697Z,97402.03
2023-04-18T02:35:47.188Z,97413.41
2023-04-18T02:38:15.822Z,97418.72
2023-04-18T02:40:42.399Z,97410.97
2023-04-18T02:43:09.016Z,97421.09
2023-04-18T02:45:35.623Z,97421.19
2023-04-18T02:48:02.770Z,97421.72
2023-04-18T02:50:30.942Z,97418.47
2023-04-18T02:52:58.093Z,97419.47
2023-04-18T02:55:32.557Z,97421.00
2023-04-18T02:58:00.392Z,97422.38
2023-04-18T03:00:36.176Z,97427.19
2023-04-18T03:03:22.919Z,97427.81
2023-04-18T03:05:57.209Z,97424.06
2023-04-18T03:08:23.908Z,97422.69
2023-04-18T03:10:50.608Z,97423.34
2023-04-18T03:13:21.074Z,97417.09
2023-04-18T03:15:47.937Z,97426.16
2023-04-18T03:18:14.708Z,97422.31
2023-04-18T03:20:42.280Z,97421.91
2023-04-18T03:23:08.937Z,97427.22
2023-04-18T03:25:35.580Z,97419.16
2023-04-18T03:28:03.071Z,97417.53
2023-04-18T03:30:29.767Z,97412.41
2023-04-18T03:32:59.424Z,97416.72
2023-04-18T03:35:25.988Z,97418.84
2023-04-18T03:37:52.626Z,97414.94
2023-04-18T03:40:24.048Z,97417.09
2023-04-18T03:42:53.266Z,97412.56
2023-04-18T03:45:20.271Z,97413.84
2023-04-18T03:47:47.354Z,97416.16
2023-04-18T03:50:15.212Z,97412.84
2023-04-18T03:52:43.146Z,97430.09
2023-04-18T03:55:09.818Z,97422.78
2023-04-18T03:57:37.044Z,97424.72
2023-04-18T04:00:08.113Z,97440.38
2023-04-18T04:02:42.230Z,97430.69
2023-04-18T04:05:11.480Z,97439.06
2023-04-18T04:07:38.417Z,97437.69
2023-04-18T04:10:06.057Z,97442.44
2023-04-18T04:12:32.599Z,97440.38
2023-04-18T04:14:59.288Z,97449.31
2023-04-18T04:17:26.175Z,97448.13
2023-04-18T04:19:53.144Z,97446.53
2023-04-18T04:22:20.992Z,97447.25
2023-04-18T04:24:47.913Z,97442.94
2023-04-18T04:27:18.919Z,97450.16
2023-04-18T04:29:46.382Z,97453.69
2023-04-18T04:32:13.570Z,97443.84
2023-04-18T04:34:41.637Z,97455.91
2023-04-18T04:37:10.552Z,97457.59
2023-04-18T04:39:46.555Z,97458.03
2023-04-18T04:42:28.459Z,97456.03
2023-04-18T04:45:03.611Z,97463.22
2023-04-18T04:47:30.348Z,97462.59
2023-04-18T04:49:56.832Z,97457.94
2023-04-18T04:52:23.291Z,97459.97
2023-04-18T04:54:50.734Z,97464.38
2023-04-18T04:57:19.046Z,97461.97
2023-04-18T04:59:45.662Z,97471.41
2023-04-18T05:02:12.436Z,97470.34
2023-04-18T05:04:39.295Z,97467.84
2023-04-18T05:07:05.874Z,97464.31
2023-04-18T05:09:32.416Z,97467.78
2023-04-18T05:11:58.881Z,97469.84
2023-04-18T05:14:25.915Z,97470.47
2023-04-18T05:16:52.489Z,97468.53
2023-04-18T05:19:18.953Z,97461.91
2023-04-18T05:21:45.454Z,97469.28
2023-04-18T05:24:12.046Z,97473.81
2023-04-18T05:26:38.642Z,97471.63
2023-04-18T05:29:05.429Z,97473.25
2023-04-18T05:31:32.302Z,97476.66
2023-04-18T05:33:58.874Z,97471.41
2023-04-18T05:36:25.365Z,97477.00
2023-04-18T05:38:51.821Z,97471.53
2023-04-18T05:41:18.303Z,97473.72
2023-04-18T05:43:51.135Z,97466.53
2023-04-18T05:46:28.804Z,97476.44
2023-04-18T05:48:55.425Z,97471.13
2023-04-18T05:51:21.941Z,97481.97
2023-04-18T05:53:48.418Z,97483.00
2023-04-18T05:56:14.947Z,97483.31
2023-04-18T05:58:41.408Z,97486.69
2023-04-18T06:01:08.989Z,97480.94
2023-04-18T06:03:35.687Z,97481.94
2023-04-18T06:06:02.578Z,97475.09
2023-04-18T06:08:29.197Z,97472.09
2023-04-18T06:10:55.668Z,97479.50
2023-04-18T06:13:22.126Z,97472.50
2023-04-18T06:15:48.744Z,97473.63
2023-04-18T06:18:15.336Z,97469.81
2023-04-18T06:20:43.896Z,97466.34
2023-04-18T06:23:10.359Z,97480.38
2023-04-18T06:25:36.854Z,97478.25
2023-04-18T06:28:03.318Z,97481.53
2023-04-18T06:30:29.918Z,97484.63
2023-04-18T06:32:56.442Z,97485.16
2023-04-18T06:35:24.607Z,97483.00
2023-04-18T06:37:52.905Z,97485.66
2023-04-18T06:40:19.468Z,97490.81
2023-04-18T06:42:46.297Z,97484.72
2023-04-18T06:45:12.745Z,97494.94
2023-04-18T06:47:40.134Z,97494.03
2023-04-18T06:50:07.565Z,97488.81
2023-04-18T06:52:35.414Z,97490.72
2023-04-18T06:55:01.973Z,97490.47
2023-04-18T06:57:28.448Z,97500.66
2023-04-18T06:59:54.943Z,97498.47
2023-04-18T07:02:21.539Z,97498.84
2023-04-18T07:04:48.115Z,97510.03
2023-04-18T07:07:14.609Z,97498.88
2023-04-18T07:09:41.059Z,97499.38
2023-04-18T07:12:07.606Z,97502.16
2023-04-18T07:14:34.441Z,97493.41
2023-04-18T07:17:01.599Z,97496.00
2023-04-18T07:19:28.162Z,97489.16
2023-04-18T07:21:55.916Z,97490.44
2023-04-18T07:24:23.630Z,97491.28
2023-04-18T07:26:52.042Z,97496.88
2023-04-18T07:29:19.613Z,97488.22
2023-04-18T07:31:46.306Z,97494.53
2023-04-18T07:34:14.083Z,97497.16
2023-04-18T07:36:40.736Z,97494.78
2023-04-18T07:39:07.633Z,97499.19
2023-04-18T07:41:34.423Z,97494.13
2023-04-18T07:44:01.575Z,97499.75
2023-04-18T07:46:28.238Z,97505.16
2023-04-18T07:48:54.912Z,97503.38
2023-04-18T07:51:21.888Z,97504.94
2023-04-18T07:53:48.313Z,97499.44
2023-04-18T07:56:14.988Z,97500.38
2023-04-18T07:58:41.500Z,97501.88
2023-04-18T08:01:08.974Z,97499.75
2023-04-18T08:03:37.115Z,97507.66
2023-04-18T08:06:03.842Z,97506.81
2023-04-18T08:08:30.368Z,97509.41
2023-04-18T08:10:56.881Z,97519.19
2023-04-18T08:13:23.378Z,97516.06
2023-04-18T08:15:49.885Z,97522.50
2023-04-18T08:18:16.379Z,97516.00
2023-04-18T08:20:42.871Z,97517.34
2023-04-18T08:23:11.423Z,97526.38
2023-04-18T08:25:39.665Z,97525.75
2023-04-18T08:28:06.346Z,97526.25
2023-04-18T08:30:32.865Z,97527.19
2023-04-18T08:33:00.152Z,97532.22
2023-04-18T08:35:26.863Z,97527.81
2023-04-18T08:37:53.430Z,97535.03
2023-04-18T08:40:20.550Z,97533.13
2023-04-18T08:42:47.086Z,97537.09
2023-04-18T08:45:14.181Z,97534.09
2023-04-18T08:47:41.328Z,97550.97
2023-04-18T08:50:09.253Z,97545.16
2023-04-18T08:52:36.351Z,97546.44
2023-04-18T08:55:03.814Z,97540.31
2023-04-18T08:57:31.290Z,97542.34
2023-04-18T09:00:00.669Z,97553.59
2023-04-18T09:02:38.901Z,97547.94
2023-04-18T09:05:11.846Z,97547.69
2023-04-18T09:07:38.413Z,97558.31
2023-04-18T09:10:05.027Z,97549.75
2023-04-18T09:12:32.671Z,97556.25
2023-04-18T09:15:14.102Z,97557.44
2023-04-18T09:17:42.484Z,97549.38
2023-04-18T09:20:12.991Z,97561.91
2023-04-18T09:22:46.122Z,97559.56
2023-04-18T09:25:23.805Z,97567.75
2023-04-18T09:27:50.345Z,97556.59
2023-04-18T09:30:29.012Z,97558.41
2023-04-18T09:33:00.286Z,97560.31
2023-04-18T09:35:27.234Z,97557.66
2023-04-18T09:37:53.672Z,97560.59
2023-04-18T09:40:20.357Z,97558.41
2023-04-18T09:42:48.109Z,97554.13
2023-04-18T09:45:15.486Z,97551.22
2023-04-18T09:47:42.064Z,97550.94
2023-04-18T09:50:09.424Z,97553.78
2023-04-18T09:52:37.553Z,97557.53
2023-04-18T09:55:05.370Z,97560.38
2023-04-18T09:57:32.836Z,97559.94
2023-04-18T10:00:02.370Z,97553.09
2023-04-18T10:02:35.296Z,97558.50
2023-04-18T10:05:04.333Z,97555.31
2023-04-18T10:07:31.444Z,97554.13
2023-04-18T10:09:57.905Z,97550.88
2023-04-18T10:12:24.730Z,97552.81
2023-04-18T10:14:51.359Z,97556.47
2023-04-18T10:17:19.761Z,97550.84
2023-04-18T10:19:47.501Z,97555.88
2023-04-18T10:22:13.998Z,97560.00
2023-04-18T10:24:49.726Z,97557.00
2023-04-18T10:27:17.102Z,97552.88
2023-04-18T10:29:48.222Z,97554.16
2023-04-18T10:32:14.989Z,97550.97
2023-04-18T10:34:41.473Z,97553.44
2023-04-18T10:37:07.966Z,97547.94
2023-04-18T10:39:53.088Z,97550.34
2023-04-18T10:42:19.792Z,97547.88
2023-04-18T10:45:06.217Z,97550.06
2023-04-18T10:47:32.865Z,97551.19
2023-04-18T10:50:01.568Z,97549.88
2023-04-18T10:52:28.350Z,97551.25
2023-04-18T10:55:21.262Z,97551.19
2023-04-18T10:57:48.718Z,97551.28
2023-04-18T11:00:16.635Z,97552.44
2023-04-18T11:02:50.535Z,97551.44
2023-04-18T11:05:21.464Z,97549.56
2023-04-18T11:07:51.146Z,97548.66
2023-04-18T11:10:19.901Z,97549.59
2023-04-18T11:12:46.614Z,97548.88
2023-04-18T11:15:17.239Z,97547.53
2023-04-18T11:17:44.130Z,97552.00
2023-04-18T11:20:12.788Z,97540.81
2023-04-18T11:22:48.768Z,97544.66
2023-04-18T11:25:16.356Z,97541.28
2023-04-18T11:27:47.012Z,97534.38
2023-04-18T11:30:14.463Z,97547.59
2023-04-18T11:32:41.162Z,97544.97
2023-04-18T11:35:11.996Z,97539.56
2023-04-18T11:37:39.096Z,97549.81
2023-04-18T11:40:09.074Z,97539.81
2023-04-18T11:42:36.222Z,97543.19
2023-04-18T11:45:03.178Z,97542.41
2023-04-18T11:47:31.620Z,97543.69
2023-04-18T11:49:58.204Z,97542.88
2023-04-18T11:52:26.132Z,97538.44
2023-04-18T11:54:52.866Z,97543.13
2023-04-18T11:57:19.356Z,97536.97
2023-04-18T11:59:50.075Z,97533.59
2023-04-18T12:02:17.254Z,97540.72
2023-04-18T12:04:52.018Z,97537.03
2023-04-18T12:07:36.090Z,97536.13
2023-04-18T12:10:03.962Z,97542.66
2023-04-18T12:12:30.543Z,97541.75
2023-04-18T12:15:00.758Z,97538.66
2023-04-18T12:17:27.677Z,97536.63
2023-04-18T12:19:55.415Z,97545.59
2023-04-18T12:22:57.823Z,97546.78
2023-04-18T12:25:29.087Z,97545.63
2023-04-18T12:27:58.622Z,97552.78
2023-04-18T12:30:29.561Z,97543.69
2023-04-18T12:32:56.935Z,97548.28
2023-04-18T12:35:24.070Z,97551.81
2023-04-18T12:37:51.904Z,97551.34
2023-04-18T12:40:22.839Z,97542.09
2023-04-18T12:42:50.141Z,97551.88
2023-04-18T12:45:17.290Z,97543.13
2023-04-18T12:47:44.797Z,97550.66
2023-04-18T12:50:15.021Z,97551.13
2023-04-18T12:52:42.278Z,97550.16
2023-04-18T12:55:09.524Z,97541.16
2023-04-18T12:57:36.357Z,97546.31
2023-04-18T13:00:06.373Z,97545.38
2023-04-18T13:02:37.224Z,97545.81
2023-04-18T13:05:07.644Z,97548.06
2023-04-18T13:07:34.224Z,97545.69
2023-04-18T13:10:01.003Z,97540.81
2023-04-18T13:12:29.288Z,97549.38
2023-04-18T13:14:56.174Z,97541.72
2023-04-18T13:17:22.777Z,97540.31
2023-04-18T13:19:49.299Z,97544.44
2023-04-18T13:22:15.763Z,97546.34
2023-04-18T13:24:42.279Z,97541.06
2023-04-18T13:27:10.554Z,97551.06
2023-04-18T13:29:38.568Z,97542.84
2023-04-18T13:32:06.095Z,97538.94
2023-04-18T13:34:34.387Z,97545.31
2023-04-18T13:37:01.377Z,97544.72
2023-04-18T13:39:27.917Z,97545.63
2023-04-18T13:41:54.927Z,97543.00
2023-04-18T13:44:21.482Z,97538.16
2023-04-18T13:46:48.086Z,97544.13
2023-04-18T13:49:14.780Z,97538.50
2023-04-18T13:51:41.365Z,97542.38
2023-04-18T13:54:07.890Z,97540.56
2023-04-18T13:56:34.436Z,97539.19
2023-04-18T13:59:00.913Z,97552.47
2023-04-18T14:01:27.846Z,97549.13
2023-04-18T14:03:54.692Z,97556.44
2023-04-18T14:06:21.226Z,97561.59
2023-04-18T14:08:48.969Z,97556.47
2023-04-18T14:11:16.119Z,97553.06
2023-04-18T14:13:44.557Z,97566.69
2023-04-18T14:16:11.172Z,97567.03
2023-04-18T14:18:38.117Z,97563.22
2023-04-18T14:21:04.708Z,97572.06
2023-04-18T14:23:31.156Z,97570.88
2023-04-18T14:25:57.768Z,97574.06
2023-04-18T14:28:25.293Z,97572.56
2023-04-18T14:30:52.054Z,97576.13
2023-04-18T14:33:18.624Z,97583.50
2023-04-18T14:35:45.702Z,97587.00
2023-04-18T14:38:12.254Z,97589.47
2023-04-18T14:40:38.777Z,97581.72
2023-04-18T14:43:05.310Z,97592.78
2023-04-18T14:45:32.797Z,97591.28
2023-04-18T14:47:59.632Z,97593.09
2023-04-18T14:50:26.785Z,97601.78
2023-04-18T14:52:53.292Z,97600.78
2023-04-18T14:55:20.252Z,97605.75
2023-04-18T14:57:47.031Z,97604.56
2023-04-18T15:00:14.611Z,97599.59
2023-04-18T15:02:41.797Z,97602.81
2023-04-18T15:05:08.836Z,97606.56
2023-04-18T15:07:37.423Z,97601.94
2023-04-18T15:10:07.557Z,97601.06
2023-04-18T15:12:34.056Z,97606.63
2023-04-18T15:15:00.618Z,97609.16
2023-04-18T15:17:27.698Z,97608.44
2023-04-18T15:19:54.310Z,97605.31
2023-04-18T15:22:20.736Z,97612.66
2023-04-18T15:24:47.467Z,97615.50
2023-04-18T15:27:13.976Z,97613.78
2023-04-18T15:29:40.963Z,97617.44
2023-04-18T15:32:07.858Z,97616.13
2023-04-18T15:34:34.457Z,97619.19
2023-04-18T15:37:00.928Z,97622.28
2023-04-18T15:39:27.447Z,97616.13
2023-04-18T15:41:57.157Z,97620.97
2023-04-18T15:44:23.719Z,97615.41
2023-04-18T15:46:50.910Z,97621.53
2023-04-18T15:49:17.413Z,97626.59
2023-04-18T15:51:44.118Z,97627.00
2023-04-18T15:54:10.612Z,97631.44
2023-04-18T15:56:37.196Z,97633.25
2023-04-18T15:59:05.017Z,97637.47
2023-04-18T16:01:32.265Z,97638.53
2023-04-18T16:03:59.002Z,97639.94
2023-04-18T16:06:26.605Z,97636.84
2023-04-18T16:08:53.145Z,97644.63
2023-04-18T16:11:19.731Z,97636.72
2023-04-18T16:13:46.153Z,97648.78
2023-04-18T16:16:12.672Z,97661.03
2023-04-18T16:18:39.360Z,97651.19
2023-04-18T16:21:06.041Z,97654.06
2023-04-18T16:23:32.663Z,97656.78
2023-04-18T16:25:59.143Z,97655.97
2023-04-18T16:28:25.736Z,97654.13
2023-04-18T16:30:55.381Z,97653.28
2023-04-18T16:33:25.769Z,97653.97
2023-04-18T16:35:53.019Z,97655.47
2023-04-18T16:38:19.573Z,97658.69
2023-04-18T16:40:46.031Z,97660.72
2023-04-18T16:43:12.527Z,97653.28
2023-04-18T16:45:38.965Z,97658.00
2023-04-18T16:48:05.533Z,97654.06
2023-04-18T16:50:32.044Z,97663.78
2023-04-18T16:52:58.518Z,97660.75
2023-04-18T16:55:26.348Z,97668.88
2023-04-18T16:57:52.805Z,97673.94
2023-04-18T17:00:19.296Z,97676.66
2023-04-18T17:02:45.893Z,97676.31
2023-04-18T17:05:12.623Z,97665.47
2023-04-18T17:07:39.069Z,97677.69
2023-04-18T17:10:06.368Z,97686.78
2023-04-18T17:12:33.086Z,97680.38
2023-04-18T17:14:59.577Z,97683.09
2023-04-18T17:17:26.335Z,97687.28
2023-04-18T17:19:52.882Z,97692.53
2023-04-18T17:22:19.368Z,97698.94
2023-04-18T17:24:45.842Z,97696.78
2023-04-18T17:27:12.490Z,97698.63
2023-04-18T17:29:39.064Z,97702.84
2023-04-18T17:32:05.708Z,97704.38
2023-04-18T17:34:32.334Z,97711.78
2023-04-18T17:36:58.847Z,97716.22
2023-04-18T17:39:25.476Z,97723.47
2023-04-18T17:41:52.046Z,97717.69
2023-04-18T17:44:18.529Z,97726.28
2023-04-18T17:46:45.012Z,97714.50
2023-04-18T17:49:11.871Z,97720.56
2023-04-18T17:51:38.404Z,97724.59
2023-04-18T17:54:05.397Z,97730.00
2023-04-18T17:56:31.840Z,97724.56
2023-04-18T17:58:58.375Z,97723.53
2023-04-18T18:01:26.158Z,97722.44
2023-04-18T18:03:53.705Z,97734.22
2023-04-18T18:06:20.586Z,97727.72
2023-04-18T18:08:47.124Z,97726.53
2023-04-18T18:11:13.594Z,97737.13
2023-04-18T18:13:40.187Z,97729.06
2023-04-18T18:16:07.617Z,97734.69
2023-04-18T18:18:34.224Z,97735.28
2023-04-18T18:21:00.768Z,97740.97
2023-04-18T18:23:27.346Z,97750.31
2023-04-18T18:25:53.859Z,97744.06
2023-04-18T18:28:20.375Z,97748.41
2023-04-18T18:30:46.851Z,97753.78
2023-04-18T18:33:13.799Z,97754.13
2023-04-18T18:35:40.501Z,97750.38
2023-04-18T18:38:07.182Z,97756.72
2023-04-18T18:40:34.171Z,97756.84
2023-04-18T18:43:00.710Z,97748.06
2023-04-18T18:45:27.243Z,97757.59
2023-04-18T18:47:53.786Z,97756.88
2023-04-18T18:50:20.350Z,97760.72
2023-04-18T18:52:46.903Z,97758.22
2023-04-18T18:55:13.468Z,97766.72
2023-04-18T18:57:40.003Z,97756.38
2023-04-18T19:00:09.828Z,97757.25
2023-04-18T19:02:36.794Z,97766.50
2023-04-18T19:05:03.952Z,97763.97
2023-04-18T19:07:30.720Z,97759.63
2023-04-18T19:09:57.234Z,97763.81
2023-04-18T19:12:23.705Z,97769.81
2023-04-18T19:14:50.169Z,97763.81
2023-04-18T19:17:21.921Z,97771.81
2023-04-18T19:19:48.485Z,97760.94
2023-04-18T19:22:14.945Z,97765.94
2023-04-18T19:24:41.440Z,97753.47
2023-04-18T19:27:08.207Z,97758.16
2023-04-18T19:29:37.704Z,97755.72
2023-04-18T19:32:04.344Z,97762.75
2023-04-18T19:34:31.266Z,97773.88
2023-04-18T19:36:57.732Z,97761.63
2023-04-18T19:39:24.169Z,97759.19
2023-04-18T19:41:50.602Z,97763.25
2023-04-18T19:44:17.116Z,97763.41
2023-04-18T19:46:43.605Z,97763.19
2023-04-18T19:49:10.210Z,97765.81
2023-04-18T19:51:37.237Z,97764.25
2023-04-18T19:54:04.781Z,97761.34
2023-04-18T19:56:31.643Z,97762.81
2023-04-18T19:58:58.364Z,97769.72
2023-04-18T20:01:25.738Z,97767.03
2023-04-18T20:03:53.435Z,97768.94
2023-04-18T20:06:20.283Z,97765.78
2023-04-18T20:08:46.800Z,97768.88
2023-04-18T20:11:16.418Z,97771.50
2023-04-18T20:13:42.912Z,97763.56
2023-04-18T20:16:09.475Z,97766.03
2023-04-18T20:18:40.128Z,97762.47
2023-04-18T20:21:07.538Z,97758.16
2023-04-18T20:23:34.448Z,97767.22
2023-04-18T20:26:00.962Z,97764.88
2023-04-18T20:28:27.477Z,97762.50
2023-04-18T20:30:54.016Z,97760.91
2023-04-18T20:33:20.830Z,97753.44
2023-04-18T20:35:47.293Z,97757.25
2023-04-18T20:38:14.357Z,97750.47
2023-04-18T20:40:44.958Z,97747.41
2023-04-18T20:43:13.492Z,97756.84
2023-04-18T20:45:42.868Z,97747.66
2023-04-18T20:48:09.673Z,97755.88
2023-04-18T20:50:36.119Z,97755.41
2023-04-18T20:53:03.977Z,97753.88
2023-04-18T20:55:30.544Z,97748.47
2023-04-18T20:57:57.372Z,97760.97
2023-04-18T21:00:23.986Z,97737.63
2023-04-18T21:02:50.522Z,97739.38
2023-04-18T21:05:17.083Z,97741.38
2023-04-18T21:07:44.703Z,97742.09
2023-04-18T21:10:12.269Z,97744.22
2023-04-18T21:12:38.711Z,97740.09
2023-04-18T21:15:05.596Z,97751.53
2023-04-18T21:17:32.189Z,97731.59
2023-04-18T21:19:58.875Z,97736.06
2023-04-18T21:22:25.556Z,97742.00
2023-04-18T21:24:52.174Z,97740.94
2023-04-18T21:27:18.793Z,97732.72
2023-04-18T21:29:45.280Z,97738.94
2023-04-18T21:32:11.820Z,97731.72
2023-04-18T21:34:38.276Z,97730.22
2023-04-18T21:37:04.763Z,97730.78
2023-04-18T21:39:31.291Z,97737.47
2023-04-18T21:41:58.084Z,97729.72
2023-04-18T21:44:24.830Z,97733.56
2023-04-18T21:46:51.365Z,97727.94
2023-04-18T21:49:17.837Z,97724.63
2023-04-18T21:51:44.957Z,97733.97
2023-04-18T21:54:11.532Z,97741.22
2023-04-18T21:56:38.007Z,97753.06
2023-04-18T21:59:04.475Z,97749.78
2023-04-18T22:01:31.116Z,97755.78
2023-04-18T22:03:57.767Z,97754.06
2023-04-18T22:06:24.458Z,97753.97
2023-04-18T22:08:51.609Z,97753.88
2023-04-18T22:11:18.703Z,97754.38
2023-04-18T22:13:45.833Z,97750.19
2023-04-18T22:16:12.419Z,97751.72
2023-04-18T22:18:38.915Z,97754.06
2023-04-18T22:21:06.065Z,97754.59
2023-04-18T22:23:32.563Z,97754.97
2023-04-18T22:25:59.277Z,97749.56
2023-04-18T22:28:27.799Z,97755.38
2023-04-18T22:30:54.382Z,97748.06
2023-04-18T22:33:20.907Z,97745.00
2023-04-18T22:35:47.968Z,97745.41
2023-04-18T22:38:14.489Z,97739.59
2023-04-18T22:40:40.955Z,97751.31
2023-04-18T22:43:07.509Z,97746.66
2023-04-18T22:45:34.644Z,97743.28
2023-04-18T22:48:01.264Z,97747.88
2023-04-18T22:50:27.814Z,97740.59
2023-04-18T22:52:54.252Z,97755.31
2023-04-18T22:55:20.746Z,97747.44
2023-04-18T22:57:47.213Z,97751.97
2023-04-18T23:00:14.427Z,97746.78
2023-04-18T23:02:41.495Z,97759.69
2023-04-18T23:05:08.952Z,97754.13
2023-04-18T23:07:35.489Z,97756.72
2023-04-18T23:10:04.018Z,97758.78
2023-04-18T23:12:30.612Z,97763.06
2023-04-18T23:14:57.240Z,97756.00
2023-04-18T23:17:23.823Z,97757.50
2023-04-18T23:19:50.407Z,97754.78
2023-04-18T23:22:17.058Z,97756.41
2023-04-18T23:24:43.613Z,97759.19
2023-04-18T23:27:10.197Z,97755.78
2023-04-18T23:29:37.803Z,97755.03
2023-04-18T23:32:04.888Z,97743.63
2023-04-18T23:34:32.001Z,97737.88
2023-04-18T23:36:58.538Z,97737.28
2023-04-18T23:39:28.135Z,97733.28
2023-04-18T23:41:54.776Z,97742.06
2023-04-18T23:44:21.449Z,97734.56
2023-04-18T23:46:48.260Z,97728.34
2023-04-18T23:49:15.131Z,97721.69
2023-04-18T23:51:41.619Z,97718.94
2023-04-18T23:54:08.088Z,97709.50
2023-04-18T23:56:34.941Z,97713.94
2023-04-18T23:59:01.626Z,97710.53
